Buoy 13519

sailwx.info

Track history (hours):
 
Tides and Currents Weather Stations Pressure Air Temp Water Temp Dewpoint Dewpoint Depression Visibility Wind Speed Wind Dir Waves Ship Positions

Drifting buoy 13519

Last reported at 2016-Dec-06 20:00 UTC. Time now 2016-Dec-10 01:18 UTC.
Position N 24°47' W 076°11'.

Barometer 1015.2 mb
Water temperature 30.2 ° C

Date/timePositionNaut miles runAvg speedWind from/ knotsBaromVisibWave heightAir tempDewpointWater temp
2016-Dec-06 20:00N 24°47' W 076°11'1 0.5 1015.2 30.2
2016-Dec-06 19:00N 24°47' W 076°10'1 0.5 1015.2 35.6
2016-Dec-06 18:00N 24°47' W 076°11'0 0.0 1015.6 34.5
2016-Dec-06 12:00N 24°47' W 076°11'0 0.0 1017.2 24.6
2016-Dec-06 11:00N 24°47' W 076°11'0 0.0 1016.8 24.3
2016-Dec-06 10:00N 24°47' W 076°11'1 0.5 1016.5 24.3
2016-Dec-06 09:00N 24°47' W 076°10'1 0.5 1016.3 24.4
2016-Dec-06 08:00N 24°47' W 076°11'0 0.0 1016.5 24.4
2016-Dec-06 07:00N 24°47' W 076°11'1 0.5 1016.2 24.3
2016-Dec-06 06:00N 24°47' W 076°11'1 0.3 1016.3 24.4
2016-Dec-06 02:00N 24°47' W 076°10'1 0.5 1016.8 24.8
2016-Dec-06 01:00N 24°47' W 076°11'1 0.5 1016.4 24.6
2016-Dec-06 00:00N 24°47' W 076°10'0 0.0 1016.1 24.8
2016-Dec-05 23:00N 24°47' W 076°10'1 0.5 1015.9 25.1
2016-Dec-05 22:00N 24°47' W 076°11'0 0.0 1015.8 26.6
2016-Dec-05 21:00N 24°47' W 076°11'0 0.0 1015.7 30.1
2016-Dec-05 20:00N 24°47' W 076°11'0 0.0 1015.6
2016-Dec-05 19:00N 24°47' W 076°11'0 0.0 1015.8
2016-Dec-05 18:00N 24°47' W 076°11'0 0.0 1016.3
2016-Dec-05 17:00N 24°47' W 076°11'0 0.0 1017.1
2016-Dec-05 15:00N 24°47' W 076°11'0 0.0 1018.4 30.3
2016-Dec-05 14:00N 24°47' W 076°11'1 1.2 1018.6 29.7
2016-Dec-05 13:00N 24°46' W 076°10'0 0.0 1018.0 26.9
2016-Dec-05 12:00N 24°46' W 076°10'1 0.8 1017.9 24.2
2016-Dec-05 11:00N 24°47' W 076°10'1 0.5 1017.5 23.8
2016-Dec-05 10:00N 24°47' W 076°11'0 0.0 1016.9 23.9
2016-Dec-05 08:00N 24°47' W 076°11'0 0.0 1017.1 24.1
2016-Dec-05 07:00N 24°47' W 076°11'0 0.0 1017.1 24.1
2016-Dec-05 06:00N 24°47' W 076°11'0 0.0 1017.6 24.5
2016-Dec-05 02:00N 24°47' W 076°11'1 0.6 1018.8 24.8
2016-Dec-05 01:00N 24°47' W 076°11'1 0.6 1018.5 24.9
2016-Dec-05 00:00N 24°47' W 076°11'0 0.0 1017.8 24.9
2016-Dec-04 23:00N 24°47' W 076°11'0 0.0 1017.6 24.9
2016-Dec-04 22:00N 24°47' W 076°11'0 0.0 1017.1 25.9
2016-Dec-04 21:00N 24°47' W 076°11'0 0.0 1016.6 28.8
2016-Dec-04 20:00N 24°47' W 076°11'0 0.0 1016.7 32.5
2016-Dec-04 19:00N 24°47' W 076°11'0 0.0 1016.8
2016-Dec-04 18:00N 24°47' W 076°11'0 0.0 1017.1 32.9
2016-Dec-04 15:00N 24°47' W 076°11'0 0.0 1018.6 30.9
2016-Dec-04 14:00N 24°47' W 076°11'1 0.5 1018.4 28.4
2016-Dec-04 13:00N 24°47' W 076°10'0 0.0 1017.7 26.6
2016-Dec-04 12:00N 24°47' W 076°10'0 0.0 1017.2 24.5
2016-Dec-04 11:00N 24°47' W 076°10'1 0.5 1016.7 24.4
2016-Dec-04 10:00N 24°47' W 076°11'0 0.0 1016.2 24.3
2016-Dec-04 08:00N 24°47' W 076°11'0 0.0 1016.1 24.1
2016-Dec-04 07:00N 24°47' W 076°11'0 0.0 1016.4 24.2
2016-Dec-04 06:00N 24°47' W 076°11'1 0.2 1016.8 24.4
2016-Dec-04 03:00N 24°46' W 076°11'1 0.3 1017.9 24.4
2016-Dec-04 01:00N 24°47' W 076°11'0 0.0 1017.2 24.1
2016-Dec-03 22:00N 24°47' W 076°11'0 0.0 1024.0 -0.0
2016-Dec-03 13:00N 24°47' W 076°11'1 0.3 1017.9 26.8
2016-Dec-03 10:00N 24°46' W 076°11'1 0.1 1016.2 23.9
2016-Dec-03 01:00N 24°47' W 076°11'1 0.8 1017.0 24.9
2016-Dec-03 00:00N 24°47' W 076°10'1 0.6 1016.7 24.2
2016-Dec-02 23:00N 24°47' W 076°10'0 0.0 1016.3 24.8
2016-Dec-02 22:00N 24°47' W 076°10'0 0.0 1016.2 26.4
2016-Dec-02 21:00N 24°47' W 076°10'1 0.5 1016.0 27.4
2016-Dec-02 20:00N 24°47' W 076°11'1 0.5 1015.8 30.8
2016-Dec-02 19:00N 24°47' W 076°11'0 0.0 1016.0 33.9
2016-Dec-02 18:00N 24°47' W 076°11'1 0.2 1016.1
2016-Dec-02 15:00N 24°47' W 076°11'1 0.8 1017.9 33.2
2016-Dec-02 14:00N 24°47' W 076°10'0 0.0 1017.9 30.8
2016-Dec-02 13:00N 24°47' W 076°10'1 0.6 1017.5 27.2
2016-Dec-02 11:00N 24°47' W 076°11'1 1.1 1015.9 24.4
2016-Dec-02 10:00N 24°47' W 076°10'1 0.5 1015.5 24.6
2016-Dec-02 09:00N 24°47' W 076°11'1 0.1 1015.1 24.6
2016-Dec-02 01:00N 24°47' W 076°10'0 0.0 1015.8 25.5
2016-Dec-01 23:00N 24°47' W 076°10'2 2.2 1015.2 26.1
2016-Dec-01 22:00N 24°47' W 076°13'0 0.0 1014.6 27.4
2016-Dec-01 19:00N 24°47' W 076°13'2 0.4 1014.5
2016-Dec-01 15:00N 24°47' W 076°11'1 0.5 1016.7 27.2
2016-Dec-01 14:00N 24°47' W 076°10'0 0.0 1016.7 25.6
2016-Dec-01 08:00N 24°47' W 076°10'1 0.2 1015.5 25.1
2016-Dec-01 01:00N 24°47' W 076°11'1 0.3 1016.5 24.4
2016-Nov-30 23:00N 24°47' W 076°11'1 0.3 1015.5 25.6
2016-Nov-30 21:00N 24°47' W 076°11'0 0.0 1014.5 26.6
2016-Nov-30 20:00N 24°47' W 076°11'2 1.7 1014.2 27.4
2016-Nov-30 19:00N 24°46' W 076°10'2 1.7 1014.3 29.0
2016-Nov-30 18:00N 24°47' W 076°11'2 0.9 1014.8 29.7
2016-Nov-30 16:00N 24°46' W 076°10'1 0.8 1016.7 29.2
2016-Nov-30 15:00N 24°47' W 076°10'1 0.5 1017.2 25.3
2016-Nov-30 14:00N 24°47' W 076°11'0 0.0 1017.5 25.0
2016-Nov-30 13:00N 24°47' W 076°11'1 0.5 1017.1 24.6
2016-Nov-30 12:00N 24°47' W 076°10'1 0.5 1016.7 23.6
2016-Nov-30 11:00N 24°47' W 076°11'0 0.0 1016.3 24.4
2016-Nov-30 10:00N 24°47' W 076°11'1 0.5 1016.1 24.0
2016-Nov-30 09:00N 24°47' W 076°11'1 1.1 1016.2 23.9
2016-Nov-30 08:00N 24°47' W 076°10'0 0.0 1016.2 22.9
2016-Nov-30 07:00N 24°47' W 076°10'0 0.0 1016.4 23.4
2016-Nov-30 03:00N 24°47' W 076°10'1 0.3 1017.5 24.6
2016-Nov-30 01:00N 24°47' W 076°11'1 0.6 1017.0 24.7
2016-Nov-30 00:00N 24°47' W 076°11'1 0.8 1016.4 24.8
2016-Nov-29 23:00N 24°47' W 076°10'1 0.5 1016.1 24.8
2016-Nov-29 22:00N 24°47' W 076°11'0 0.0 1016.1 25.1
2016-Nov-29 21:00N 24°47' W 076°11'1 0.3 1016.4 25.1
2016-Nov-29 19:00N 24°47' W 076°11'1 0.1 1016.0 24.9
2016-Nov-29 15:00N 24°47' W 076°11'0 0.0 1017.5 25.2
2016-Nov-29 14:00N 24°47' W 076°11'0 0.0 1017.0 24.9
2016-Nov-29 13:00N 24°47' W 076°11'0 0.0 1016.7 24.9
2016-Nov-29 11:00N 24°47' W 076°11'1 0.5 1015.8 24.4
2016-Nov-29 10:00N 24°47' W 076°10'0 0.0 1015.4 24.0
2016-Nov-29 09:00N 24°47' W 076°10'0 0.0 1014.8 23.3
2016-Nov-29 08:00N 24°47' W 076°10'0 0.0 1015.1 23.3
2016-Nov-29 07:00N 24°47' W 076°10'1 0.1 1014.9 23.4
2016-Nov-29 03:00N 24°47' W 076°11'0 0.0 1016.1 23.9
2016-Nov-29 02:00N 24°47' W 076°11'1 1.2 1015.5 24.1
2016-Nov-29 01:00N 24°47' W 076°12'2 1.7 1015.1 24.1
2016-Nov-29 00:00N 24°47' W 076°10'0 0.0 1014.9 24.4
2016-Nov-28 23:00N 24°47' W 076°10'0 0.0 1014.5 24.1
2016-Nov-28 22:00N 24°47' W 076°10'0 0.0 1014.1 24.2
2016-Nov-28 21:00N 24°47' W 076°10'0 0.0 1014.1 24.6
2016-Nov-28 20:00N 24°47' W 076°10'1 0.8 1014.0 24.6
2016-Nov-28 19:00N 24°47' W 076°11'0 0.0 1014.5 24.6
2016-Nov-28 18:00N 24°47' W 076°11'1 0.2 1014.9 24.6
2016-Nov-28 15:00N 24°47' W 076°10'1 0.8 1016.9 24.9
2016-Nov-28 14:00N 24°47' W 076°11'0 0.0 1016.6 24.9
2016-Nov-28 13:00N 24°47' W 076°11'1 0.5 1016.2 24.6
2016-Nov-28 12:00N 24°47' W 076°11'1 0.5 1015.5 24.0
2016-Nov-28 11:00N 24°47' W 076°11'0 0.0 1015.0 24.2
2016-Nov-28 10:00N 24°47' W 076°11'0 0.0 1014.7 24.1
2016-Nov-28 09:00N 24°47' W 076°11'0 0.0 1014.2 23.6
2016-Nov-28 08:00N 24°47' W 076°11'0 0.0 1014.6 22.4
2016-Nov-28 07:00N 24°47' W 076°11'0 0.0 1014.9 22.1
2016-Nov-28 06:00N 24°47' W 076°11'1 0.1 1014.9 21.9
2016-Nov-28 01:00N 24°47' W 076°10'0 0.0 1014.3 22.4
2016-Nov-28 00:00N 24°47' W 076°10'0 0.0 1013.8 24.6
2016-Nov-27 23:00N 24°47' W 076°10'1 0.5 1013.9 25.1
2016-Nov-27 22:00N 24°47' W 076°11'1 0.5 1013.7 24.9
2016-Nov-27 21:00N 24°47' W 076°10'1 1.1 1013.4 24.3
2016-Nov-27 20:00N 24°47' W 076°11'0 0.0 1013.2 24.3
2016-Nov-27 19:00N 24°47' W 076°11'1 0.8 1013.7 24.3
2016-Nov-27 18:00N 24°47' W 076°11'0 0.0 1014.5 24.4
2016-Nov-27 17:00N 24°47' W 076°11'1 0.3 1015.2 24.4
2016-Nov-27 15:00N 24°47' W 076°11'1 0.8 1016.1 24.9
2016-Nov-27 14:00N 24°47' W 076°10'1 0.8 1016.2 25.2
2016-Nov-27 13:00N 24°47' W 076°11'0 0.0 1015.4 25.0
2016-Nov-27 12:00N 24°47' W 076°11'1 0.5 1015.0 24.9
2016-Nov-27 11:00N 24°47' W 076°10'1 0.5 1014.5 24.6
2016-Nov-27 10:00N 24°47' W 076°11'0 0.0 1014.4 24.9
2016-Nov-27 08:00N 24°47' W 076°11'0 0.0 1014.3 24.1
2016-Nov-27 07:00N 24°47' W 076°11'1 0.1 1014.6 22.9
2016-Nov-27 01:00N 24°47' W 076°11'0 0.0 1016.9 24.9
2016-Nov-27 00:00N 24°47' W 076°11'1 0.6 1016.1 25.1
2016-Nov-26 23:00N 24°47' W 076°11'0 0.0 1016.0 25.6
2016-Nov-26 21:00N 24°47' W 076°11'0 0.0 1015.9 26.1
2016-Nov-26 20:00N 24°47' W 076°11'   1015.9 23.4
Track history (hours):
 
Tides and Currents Weather Stations Pressure Air Temp Water Temp Dewpoint Dewpoint Depression Visibility Wind Speed Wind Dir Waves Ship Positions

Drifting buoy 13519

Last reported at 2016-Dec-06 20:00 UTC. Time now 2016-Dec-10 01:18 UTC.
Position N 24°47' W 076°11'.

Barometer 1015.2 mb
Water temperature 30.2 ° C

Date/timePositionNaut miles runAvg speedWind from/ knotsBaromVisibWave heightAir tempDewpointWater temp
2016-Dec-06 20:00N 24°47' W 076°11'1 0.5 1015.2 30.2
2016-Dec-06 19:00N 24°47' W 076°10'1 0.5 1015.2 35.6
2016-Dec-06 18:00N 24°47' W 076°11'0 0.0 1015.6 34.5
2016-Dec-06 12:00N 24°47' W 076°11'0 0.0 1017.2 24.6
2016-Dec-06 11:00N 24°47' W 076°11'0 0.0 1016.8 24.3
2016-Dec-06 10:00N 24°47' W 076°11'1 0.5 1016.5 24.3
2016-Dec-06 09:00N 24°47' W 076°10'1 0.5 1016.3 24.4
2016-Dec-06 08:00N 24°47' W 076°11'0 0.0 1016.5 24.4
2016-Dec-06 07:00N 24°47' W 076°11'1 0.5 1016.2 24.3
2016-Dec-06 06:00N 24°47' W 076°11'1 0.3 1016.3 24.4
2016-Dec-06 02:00N 24°47' W 076°10'1 0.5 1016.8 24.8
2016-Dec-06 01:00N 24°47' W 076°11'1 0.5 1016.4 24.6
2016-Dec-06 00:00N 24°47' W 076°10'0 0.0 1016.1 24.8
2016-Dec-05 23:00N 24°47' W 076°10'1 0.5 1015.9 25.1
2016-Dec-05 22:00N 24°47' W 076°11'0 0.0 1015.8 26.6
2016-Dec-05 21:00N 24°47' W 076°11'0 0.0 1015.7 30.1
2016-Dec-05 20:00N 24°47' W 076°11'0 0.0 1015.6
2016-Dec-05 19:00N 24°47' W 076°11'0 0.0 1015.8
2016-Dec-05 18:00N 24°47' W 076°11'0 0.0 1016.3
2016-Dec-05 17:00N 24°47' W 076°11'0 0.0 1017.1
2016-Dec-05 15:00N 24°47' W 076°11'0 0.0 1018.4 30.3
2016-Dec-05 14:00N 24°47' W 076°11'1 1.2 1018.6 29.7
2016-Dec-05 13:00N 24°46' W 076°10'0 0.0 1018.0 26.9
2016-Dec-05 12:00N 24°46' W 076°10'1 0.8 1017.9 24.2
2016-Dec-05 11:00N 24°47' W 076°10'1 0.5 1017.5 23.8
2016-Dec-05 10:00N 24°47' W 076°11'0 0.0 1016.9 23.9
2016-Dec-05 08:00N 24°47' W 076°11'0 0.0 1017.1 24.1
2016-Dec-05 07:00N 24°47' W 076°11'0 0.0 1017.1 24.1
2016-Dec-05 06:00N 24°47' W 076°11'0 0.0 1017.6 24.5
2016-Dec-05 02:00N 24°47' W 076°11'1 0.6 1018.8 24.8
2016-Dec-05 01:00N 24°47' W 076°11'1 0.6 1018.5 24.9
2016-Dec-05 00:00N 24°47' W 076°11'0 0.0 1017.8 24.9
2016-Dec-04 23:00N 24°47' W 076°11'0 0.0 1017.6 24.9
2016-Dec-04 22:00N 24°47' W 076°11'0 0.0 1017.1 25.9
2016-Dec-04 21:00N 24°47' W 076°11'0 0.0 1016.6 28.8
2016-Dec-04 20:00N 24°47' W 076°11'0 0.0 1016.7 32.5
2016-Dec-04 19:00N 24°47' W 076°11'0 0.0 1016.8
2016-Dec-04 18:00N 24°47' W 076°11'0 0.0 1017.1 32.9
2016-Dec-04 15:00N 24°47' W 076°11'0 0.0 1018.6 30.9
2016-Dec-04 14:00N 24°47' W 076°11'1 0.5 1018.4 28.4
2016-Dec-04 13:00N 24°47' W 076°10'0 0.0 1017.7 26.6
2016-Dec-04 12:00N 24°47' W 076°10'0 0.0 1017.2 24.5
2016-Dec-04 11:00N 24°47' W 076°10'1 0.5 1016.7 24.4
2016-Dec-04 10:00N 24°47' W 076°11'0 0.0 1016.2 24.3
2016-Dec-04 08:00N 24°47' W 076°11'0 0.0 1016.1 24.1
2016-Dec-04 07:00N 24°47' W 076°11'0 0.0 1016.4 24.2
2016-Dec-04 06:00N 24°47' W 076°11'1 0.2 1016.8 24.4
2016-Dec-04 03:00N 24°46' W 076°11'1 0.3 1017.9 24.4
2016-Dec-04 01:00N 24°47' W 076°11'0 0.0 1017.2 24.1
2016-Dec-03 22:00N 24°47' W 076°11'0 0.0 1024.0 -0.0
2016-Dec-03 13:00N 24°47' W 076°11'1 0.3 1017.9 26.8
2016-Dec-03 10:00N 24°46' W 076°11'1 0.1 1016.2 23.9
2016-Dec-03 01:00N 24°47' W 076°11'1 0.8 1017.0 24.9
2016-Dec-03 00:00N 24°47' W 076°10'1 0.6 1016.7 24.2
2016-Dec-02 23:00N 24°47' W 076°10'0 0.0 1016.3 24.8
2016-Dec-02 22:00N 24°47' W 076°10'0 0.0 1016.2 26.4
2016-Dec-02 21:00N 24°47' W 076°10'1 0.5 1016.0 27.4
2016-Dec-02 20:00N 24°47' W 076°11'1 0.5 1015.8 30.8
2016-Dec-02 19:00N 24°47' W 076°11'0 0.0 1016.0 33.9
2016-Dec-02 18:00N 24°47' W 076°11'1 0.2 1016.1
2016-Dec-02 15:00N 24°47' W 076°11'1 0.8 1017.9 33.2
2016-Dec-02 14:00N 24°47' W 076°10'0 0.0 1017.9 30.8
2016-Dec-02 13:00N 24°47' W 076°10'1 0.6 1017.5 27.2
2016-Dec-02 11:00N 24°47' W 076°11'1 1.1 1015.9 24.4
2016-Dec-02 10:00N 24°47' W 076°10'1 0.5 1015.5 24.6
2016-Dec-02 09:00N 24°47' W 076°11'1 0.1 1015.1 24.6
2016-Dec-02 01:00N 24°47' W 076°10'0 0.0 1015.8 25.5
2016-Dec-01 23:00N 24°47' W 076°10'2 2.2 1015.2 26.1
2016-Dec-01 22:00N 24°47' W 076°13'0 0.0 1014.6 27.4
2016-Dec-01 19:00N 24°47' W 076°13'2 0.4 1014.5
2016-Dec-01 15:00N 24°47' W 076°11'1 0.5 1016.7 27.2
2016-Dec-01 14:00N 24°47' W 076°10'0 0.0 1016.7 25.6
2016-Dec-01 08:00N 24°47' W 076°10'1 0.2 1015.5 25.1
2016-Dec-01 01:00N 24°47' W 076°11'1 0.3 1016.5 24.4
2016-Nov-30 23:00N 24°47' W 076°11'1 0.3 1015.5 25.6
2016-Nov-30 21:00N 24°47' W 076°11'0 0.0 1014.5 26.6
2016-Nov-30 20:00N 24°47' W 076°11'2 1.7 1014.2 27.4
2016-Nov-30 19:00N 24°46' W 076°10'2 1.7 1014.3 29.0
2016-Nov-30 18:00N 24°47' W 076°11'2 0.9 1014.8 29.7
2016-Nov-30 16:00N 24°46' W 076°10'1 0.8 1016.7 29.2
2016-Nov-30 15:00N 24°47' W 076°10'1 0.5 1017.2 25.3
2016-Nov-30 14:00N 24°47' W 076°11'0 0.0 1017.5 25.0
2016-Nov-30 13:00N 24°47' W 076°11'1 0.5 1017.1 24.6
2016-Nov-30 12:00N 24°47' W 076°10'1 0.5 1016.7 23.6
2016-Nov-30 11:00N 24°47' W 076°11'0 0.0 1016.3 24.4
2016-Nov-30 10:00N 24°47' W 076°11'1 0.5 1016.1 24.0
2016-Nov-30 09:00N 24°47' W 076°11'1 1.1 1016.2 23.9
2016-Nov-30 08:00N 24°47' W 076°10'0 0.0 1016.2 22.9
2016-Nov-30 07:00N 24°47' W 076°10'0 0.0 1016.4 23.4
2016-Nov-30 03:00N 24°47' W 076°10'1 0.3 1017.5 24.6
2016-Nov-30 01:00N 24°47' W 076°11'1 0.6 1017.0 24.7
2016-Nov-30 00:00N 24°47' W 076°11'1 0.8 1016.4 24.8
2016-Nov-29 23:00N 24°47' W 076°10'1 0.5 1016.1 24.8
2016-Nov-29 22:00N 24°47' W 076°11'0 0.0 1016.1 25.1
2016-Nov-29 21:00N 24°47' W 076°11'1 0.3 1016.4 25.1
2016-Nov-29 19:00N 24°47' W 076°11'1 0.1 1016.0 24.9
2016-Nov-29 15:00N 24°47' W 076°11'0 0.0 1017.5 25.2
2016-Nov-29 14:00N 24°47' W 076°11'0 0.0 1017.0 24.9
2016-Nov-29 13:00N 24°47' W 076°11'0 0.0 1016.7 24.9
2016-Nov-29 11:00N 24°47' W 076°11'1 0.5 1015.8 24.4
2016-Nov-29 10:00N 24°47' W 076°10'0 0.0 1015.4 24.0
2016-Nov-29 09:00N 24°47' W 076°10'0 0.0 1014.8 23.3
2016-Nov-29 08:00N 24°47' W 076°10'0 0.0 1015.1 23.3
2016-Nov-29 07:00N 24°47' W 076°10'1 0.1 1014.9 23.4
2016-Nov-29 03:00N 24°47' W 076°11'0 0.0 1016.1 23.9
2016-Nov-29 02:00N 24°47' W 076°11'1 1.2 1015.5 24.1
2016-Nov-29 01:00N 24°47' W 076°12'2 1.7 1015.1 24.1
2016-Nov-29 00:00N 24°47' W 076°10'0 0.0 1014.9 24.4
2016-Nov-28 23:00N 24°47' W 076°10'0 0.0 1014.5 24.1
2016-Nov-28 22:00N 24°47' W 076°10'0 0.0 1014.1 24.2
2016-Nov-28 21:00N 24°47' W 076°10'0 0.0 1014.1 24.6
2016-Nov-28 20:00N 24°47' W 076°10'1 0.8 1014.0 24.6
2016-Nov-28 19:00N 24°47' W 076°11'0 0.0 1014.5 24.6
2016-Nov-28 18:00N 24°47' W 076°11'1 0.2 1014.9 24.6
2016-Nov-28 15:00N 24°47' W 076°10'1 0.8 1016.9 24.9
2016-Nov-28 14:00N 24°47' W 076°11'0 0.0 1016.6 24.9
2016-Nov-28 13:00N 24°47' W 076°11'1 0.5 1016.2 24.6
2016-Nov-28 12:00N 24°47' W 076°11'1 0.5 1015.5 24.0
2016-Nov-28 11:00N 24°47' W 076°11'0 0.0 1015.0 24.2
2016-Nov-28 10:00N 24°47' W 076°11'0 0.0 1014.7 24.1
2016-Nov-28 09:00N 24°47' W 076°11'0 0.0 1014.2 23.6
2016-Nov-28 08:00N 24°47' W 076°11'0 0.0 1014.6 22.4
2016-Nov-28 07:00N 24°47' W 076°11'0 0.0 1014.9 22.1
2016-Nov-28 06:00N 24°47' W 076°11'1 0.1 1014.9 21.9
2016-Nov-28 01:00N 24°47' W 076°10'0 0.0 1014.3 22.4
2016-Nov-28 00:00N 24°47' W 076°10'0 0.0 1013.8 24.6
2016-Nov-27 23:00N 24°47' W 076°10'1 0.5 1013.9 25.1
2016-Nov-27 22:00N 24°47' W 076°11'1 0.5 1013.7 24.9
2016-Nov-27 21:00N 24°47' W 076°10'1 1.1 1013.4 24.3
2016-Nov-27 20:00N 24°47' W 076°11'0 0.0 1013.2 24.3
2016-Nov-27 19:00N 24°47' W 076°11'1 0.8 1013.7 24.3
2016-Nov-27 18:00N 24°47' W 076°11'0 0.0 1014.5 24.4
2016-Nov-27 17:00N 24°47' W 076°11'1 0.3 1015.2 24.4
2016-Nov-27 15:00N 24°47' W 076°11'1 0.8 1016.1 24.9
2016-Nov-27 14:00N 24°47' W 076°10'1 0.8 1016.2 25.2
2016-Nov-27 13:00N 24°47' W 076°11'0 0.0 1015.4 25.0
2016-Nov-27 12:00N 24°47' W 076°11'1 0.5 1015.0 24.9
2016-Nov-27 11:00N 24°47' W 076°10'1 0.5 1014.5 24.6
2016-Nov-27 10:00N 24°47' W 076°11'0 0.0 1014.4 24.9
2016-Nov-27 08:00N 24°47' W 076°11'0 0.0 1014.3 24.1
2016-Nov-27 07:00N 24°47' W 076°11'1 0.1 1014.6 22.9
2016-Nov-27 01:00N 24°47' W 076°11'0 0.0 1016.9 24.9
2016-Nov-27 00:00N 24°47' W 076°11'1 0.6 1016.1 25.1
2016-Nov-26 23:00N 24°47' W 076°11'0 0.0 1016.0 25.6
2016-Nov-26 21:00N 24°47' W 076°11'0 0.0 1015.9 26.1
2016-Nov-26 20:00N 24°47' W 076°11'   1015.9 23.4

Dump ship's entire track history